sensor_id;sensor_type;location;lat;lon;timestamp;temperature;humidity
11284;DHT22;5698;47.332;11.180;2022-12-18T00:00:59;-5.40;99.90
11284;DHT22;5698;47.332;11.180;2022-12-18T00:03:26;-5.40;99.90
11284;DHT22;5698;47.332;11.180;2022-12-18T00:05:53;-5.30;99.90
11284;DHT22;5698;47.332;11.180;2022-12-18T00:08:20;-5.30;99.90
11284;DHT22;5698;47.332;11.180;2022-12-18T00:10:48;-5.40;99.90
11284;DHT22;5698;47.332;11.180;2022-12-18T00:13:16;-5.40;99.90
11284;DHT22;5698;47.332;11.180;2022-12-18T00:15:43;-5.50;99.90
11284;DHT22;5698;47.332;11.180;2022-12-18T00:18:10;-5.50;99.90
11284;DHT22;5698;47.332;11.180;2022-12-18T00:20:37;-5.40;99.90
11284;DHT22;5698;47.332;11.180;2022-12-18T00:23:06;-5.40;99.90
11284;DHT22;5698;47.332;11.180;2022-12-18T00:25:33;-5.40;99.90
11284;DHT22;5698;47.332;11.180;2022-12-18T00:28:02;-5.30;99.90
11284;DHT22;5698;47.332;11.180;2022-12-18T00:30:30;-5.30;99.90
11284;DHT22;5698;47.332;11.180;2022-12-18T00:32:57;-5.20;99.90
11284;DHT22;5698;47.332;11.180;2022-12-18T00:35:24;-5.20;99.90
11284;DHT22;5698;47.332;11.180;2022-12-18T00:37:51;-5.20;99.90
11284;DHT22;5698;47.332;11.180;2022-12-18T00:40:18;-5.10;99.90
11284;DHT22;5698;47.332;11.180;2022-12-18T00:42:45;-5.10;99.90
11284;DHT22;5698;47.332;11.180;2022-12-18T00:45:25;-5.10;99.90
11284;DHT22;5698;47.332;11.180;2022-12-18T00:47:53;-5.10;99.90
11284;DHT22;5698;47.332;11.180;2022-12-18T00:50:20;-5.20;99.90
11284;DHT22;5698;47.332;11.180;2022-12-18T00:52:47;-5.20;99.90
11284;DHT22;5698;47.332;11.180;2022-12-18T00:55:15;-5.20;99.90
11284;DHT22;5698;47.332;11.180;2022-12-18T00:57:42;-5.30;99.90
11284;DHT22;5698;47.332;11.180;2022-12-18T01:00:11;-5.40;99.90
11284;DHT22;5698;47.332;11.180;2022-12-18T01:02:41;-5.40;99.90
11284;DHT22;5698;47.332;11.180;2022-12-18T01:05:09;-5.50;99.90
11284;DHT22;5698;47.332;11.180;2022-12-18T01:07:37;-5.70;99.90
11284;DHT22;5698;47.332;11.180;2022-12-18T01:10:05;-5.80;99.90
11284;DHT22;5698;47.332;11.180;2022-12-18T01:12:33;-5.70;99.90
11284;DHT22;5698;47.332;11.180;2022-12-18T01:15:00;-5.70;99.90
11284;DHT22;5698;47.332;11.180;2022-12-18T01:17:27;-5.70;99.90
11284;DHT22;5698;47.332;11.180;2022-12-18T01:19:55;-5.70;99.90
11284;DHT22;5698;47.332;11.180;2022-12-18T01:22:22;-5.70;99.90
11284;DHT22;5698;47.332;11.180;2022-12-18T01:24:49;-5.70;99.90
11284;DHT22;5698;47.332;11.180;2022-12-18T01:27:16;-5.80;99.90
11284;DHT22;5698;47.332;11.180;2022-12-18T01:29:43;-5.90;99.90
11284;DHT22;5698;47.332;11.180;2022-12-18T01:32:10;-5.90;99.90
11284;DHT22;5698;47.332;11.180;2022-12-18T01:34:37;-6.00;99.90
11284;DHT22;5698;47.332;11.180;2022-12-18T01:37:06;-6.00;99.90
11284;DHT22;5698;47.332;11.180;2022-12-18T01:39:33;-6.10;99.90
11284;DHT22;5698;47.332;11.180;2022-12-18T01:42:01;-6.00;99.90
11284;DHT22;5698;47.332;11.180;2022-12-18T01:47:40;-6.20;99.90
11284;DHT22;5698;47.332;11.180;2022-12-18T01:50:12;-6.30;99.90
11284;DHT22;5698;47.332;11.180;2022-12-18T01:52:41;-6.30;99.90
11284;DHT22;5698;47.332;11.180;2022-12-18T01:55:10;-6.30;99.90
11284;DHT22;5698;47.332;11.180;2022-12-18T01:57:38;-6.40;99.90
11284;DHT22;5698;47.332;11.180;2022-12-18T02:00:08;-6.70;99.90
11284;DHT22;5698;47.332;11.180;2022-12-18T02:02:35;-6.80;99.90
11284;DHT22;5698;47.332;11.180;2022-12-18T02:05:03;-6.80;99.90
11284;DHT22;5698;47.332;11.180;2022-12-18T02:07:37;-6.80;99.90
11284;DHT22;5698;47.332;11.180;2022-12-18T02:10:15;-6.90;99.90
11284;DHT22;5698;47.332;11.180;2022-12-18T02:12:48;-6.90;99.90
11284;DHT22;5698;47.332;11.180;2022-12-18T02:15:22;-6.90;99.90
11284;DHT22;5698;47.332;11.180;2022-12-18T02:17:55;-6.80;99.90
11284;DHT22;5698;47.332;11.180;2022-12-18T02:20:28;-6.90;99.90
11284;DHT22;5698;47.332;11.180;2022-12-18T02:23:06;-7.00;99.90
11284;DHT22;5698;47.332;11.180;2022-12-18T02:28:29;-6.90;99.90
11284;DHT22;5698;47.332;11.180;2022-12-18T02:31:00;-6.80;99.90
11284;DHT22;5698;47.332;11.180;2022-12-18T02:33:29;-6.90;99.90
11284;DHT22;5698;47.332;11.180;2022-12-18T02:35:57;-7.00;99.90
11284;DHT22;5698;47.332;11.180;2022-12-18T02:38:25;-6.90;99.90
11284;DHT22;5698;47.332;11.180;2022-12-18T02:40:53;-6.90;99.90
11284;DHT22;5698;47.332;11.180;2022-12-18T02:43:21;-7.00;99.90
11284;DHT22;5698;47.332;11.180;2022-12-18T02:45:52;-7.10;99.90
11284;DHT22;5698;47.332;11.180;2022-12-18T02:48:24;-7.00;99.90
11284;DHT22;5698;47.332;11.180;2022-12-18T02:50:58;-7.10;99.90
11284;DHT22;5698;47.332;11.180;2022-12-18T02:53:31;-7.10;99.90
11284;DHT22;5698;47.332;11.180;2022-12-18T02:56:05;-7.10;99.90
11284;DHT22;5698;47.332;11.180;2022-12-18T02:58:38;-7.20;99.90
11284;DHT22;5698;47.332;11.180;2022-12-18T03:01:11;-7.10;99.90
11284;DHT22;5698;47.332;11.180;2022-12-18T03:03:41;-7.20;99.90
11284;DHT22;5698;47.332;11.180;2022-12-18T03:06:15;-7.20;99.90
11284;DHT22;5698;47.332;11.180;2022-12-18T03:08:48;-7.10;99.90
11284;DHT22;5698;47.332;11.180;2022-12-18T03:11:16;-7.30;99.90
11284;DHT22;5698;47.332;11.180;2022-12-18T03:14:04;-7.30;99.90
11284;DHT22;5698;47.332;11.180;2022-12-18T03:16:34;-7.40;99.90
11284;DHT22;5698;47.332;11.180;2022-12-18T03:19:06;-7.40;99.90
11284;DHT22;5698;47.332;11.180;2022-12-18T03:21:36;-7.40;99.90
11284;DHT22;5698;47.332;11.180;2022-12-18T03:24:06;-7.40;99.90
11284;DHT22;5698;47.332;11.180;2022-12-18T03:26:35;-7.50;99.90
11284;DHT22;5698;47.332;11.180;2022-12-18T03:29:07;-7.50;99.90
11284;DHT22;5698;47.332;11.180;2022-12-18T03:31:40;-7.40;99.90
11284;DHT22;5698;47.332;11.180;2022-12-18T03:34:11;-7.40;99.90
11284;DHT22;5698;47.332;11.180;2022-12-18T03:36:40;-7.40;99.90
11284;DHT22;5698;47.332;11.180;2022-12-18T03:39:07;-7.30;99.90
11284;DHT22;5698;47.332;11.180;2022-12-18T03:41:37;-7.40;99.90
11284;DHT22;5698;47.332;11.180;2022-12-18T03:44:13;-7.40;99.90
11284;DHT22;5698;47.332;11.180;2022-12-18T03:46:46;-7.40;99.90
11284;DHT22;5698;47.332;11.180;2022-12-18T03:49:20;-7.40;99.90
11284;DHT22;5698;47.332;11.180;2022-12-18T03:51:52;-7.40;99.90
11284;DHT22;5698;47.332;11.180;2022-12-18T03:54:22;-7.60;99.90
11284;DHT22;5698;47.332;11.180;2022-12-18T03:56:54;-7.60;99.90
11284;DHT22;5698;47.332;11.180;2022-12-18T03:59:22;-7.50;99.90
11284;DHT22;5698;47.332;11.180;2022-12-18T04:01:54;-7.60;99.90
11284;DHT22;5698;47.332;11.180;2022-12-18T04:04:24;-7.50;99.90
11284;DHT22;5698;47.332;11.180;2022-12-18T04:06:52;-7.50;99.90
11284;DHT22;5698;47.332;11.180;2022-12-18T04:09:19;-7.60;99.90
11284;DHT22;5698;47.332;11.180;2022-12-18T04:11:47;-7.60;99.90
11284;DHT22;5698;47.332;11.180;2022-12-18T04:14:14;-7.60;99.90
11284;DHT22;5698;47.332;11.180;2022-12-18T04:16:41;-7.50;99.90
11284;DHT22;5698;47.332;11.180;2022-12-18T04:19:10;-7.60;99.90
11284;DHT22;5698;47.332;11.180;2022-12-18T04:21:37;-7.50;99.90
11284;DHT22;5698;47.332;11.180;2022-12-18T04:24:04;-7.50;99.90
11284;DHT22;5698;47.332;11.180;2022-12-18T04:26:31;-7.60;99.90
11284;DHT22;5698;47.332;11.180;2022-12-18T04:28:58;-7.60;99.90
11284;DHT22;5698;47.332;11.180;2022-12-18T04:31:25;-7.60;99.90
11284;DHT22;5698;47.332;11.180;2022-12-18T04:33:52;-7.50;99.90
11284;DHT22;5698;47.332;11.180;2022-12-18T04:36:21;-7.60;99.90
11284;DHT22;5698;47.332;11.180;2022-12-18T04:38:48;-7.50;99.90
11284;DHT22;5698;47.332;11.180;2022-12-18T04:41:15;-7.60;99.90
11284;DHT22;5698;47.332;11.180;2022-12-18T04:43:42;-7.70;99.90
11284;DHT22;5698;47.332;11.180;2022-12-18T04:46:09;-7.70;99.90
11284;DHT22;5698;47.332;11.180;2022-12-18T04:48:37;-7.70;99.90
11284;DHT22;5698;47.332;11.180;2022-12-18T04:51:04;-7.60;99.90
11284;DHT22;5698;47.332;11.180;2022-12-18T04:53:33;-7.70;99.90
11284;DHT22;5698;47.332;11.180;2022-12-18T04:56:08;-7.80;99.90
11284;DHT22;5698;47.332;11.180;2022-12-18T04:58:36;-7.80;99.90
11284;DHT22;5698;47.332;11.180;2022-12-18T05:01:03;-7.80;99.90
11284;DHT22;5698;47.332;11.180;2022-12-18T05:03:30;-7.80;99.90
11284;DHT22;5698;47.332;11.180;2022-12-18T05:05:57;-7.80;99.90
11284;DHT22;5698;47.332;11.180;2022-12-18T05:08:25;-7.80;99.90
11284;DHT22;5698;47.332;11.180;2022-12-18T05:11:00;-7.80;99.90
11284;DHT22;5698;47.332;11.180;2022-12-18T05:13:27;-7.80;99.90
11284;DHT22;5698;47.332;11.180;2022-12-18T05:15:54;-7.60;99.90
11284;DHT22;5698;47.332;11.180;2022-12-18T05:18:22;-7.70;99.90
11284;DHT22;5698;47.332;11.180;2022-12-18T05:20:49;-7.70;99.90
11284;DHT22;5698;47.332;11.180;2022-12-18T05:23:16;-7.70;99.90
11284;DHT22;5698;47.332;11.180;2022-12-18T05:25:47;-7.70;99.90
11284;DHT22;5698;47.332;11.180;2022-12-18T05:28:15;-7.70;99.90
11284;DHT22;5698;47.332;11.180;2022-12-18T05:30:42;-7.80;99.90
11284;DHT22;5698;47.332;11.180;2022-12-18T05:33:11;-7.90;99.90
11284;DHT22;5698;47.332;11.180;2022-12-18T05:35:38;-7.90;99.90
11284;DHT22;5698;47.332;11.180;2022-12-18T05:38:05;-7.80;99.90
11284;DHT22;5698;47.332;11.180;2022-12-18T05:40:32;-7.80;99.90
11284;DHT22;5698;47.332;11.180;2022-12-18T05:42:59;-7.80;99.90
11284;DHT22;5698;47.332;11.180;2022-12-18T05:45:27;-7.80;99.90
11284;DHT22;5698;47.332;11.180;2022-12-18T05:47:54;-7.90;99.90
11284;DHT22;5698;47.332;11.180;2022-12-18T05:50:21;-7.90;99.90
11284;DHT22;5698;47.332;11.180;2022-12-18T05:52:48;-7.90;99.90
11284;DHT22;5698;47.332;11.180;2022-12-18T05:55:15;-7.80;99.90
11284;DHT22;5698;47.332;11.180;2022-12-18T05:57:42;-7.90;99.90
11284;DHT22;5698;47.332;11.180;2022-12-18T06:00:12;-7.90;99.90
11284;DHT22;5698;47.332;11.180;2022-12-18T06:02:41;-7.90;99.90
11284;DHT22;5698;47.332;11.180;2022-12-18T06:05:08;-7.90;99.90
11284;DHT22;5698;47.332;11.180;2022-12-18T06:07:36;-7.80;99.90
11284;DHT22;5698;47.332;11.180;2022-12-18T06:10:04;-7.80;99.90
11284;DHT22;5698;47.332;11.180;2022-12-18T06:12:31;-7.80;99.90
11284;DHT22;5698;47.332;11.180;2022-12-18T06:14:59;-7.80;99.90
11284;DHT22;5698;47.332;11.180;2022-12-18T06:17:27;-7.80;99.90
11284;DHT22;5698;47.332;11.180;2022-12-18T06:19:57;-7.80;99.90
11284;DHT22;5698;47.332;11.180;2022-12-18T06:22:24;-7.80;99.90
11284;DHT22;5698;47.332;11.180;2022-12-18T06:24:51;-7.70;99.90
11284;DHT22;5698;47.332;11.180;2022-12-18T06:27:18;-7.80;99.90
11284;DHT22;5698;47.332;11.180;2022-12-18T06:29:45;-7.70;99.90
11284;DHT22;5698;47.332;11.180;2022-12-18T06:32:13;-7.70;99.90
11284;DHT22;5698;47.332;11.180;2022-12-18T06:34:40;-7.70;99.90
11284;DHT22;5698;47.332;11.180;2022-12-18T06:37:09;-7.70;99.90
11284;DHT22;5698;47.332;11.180;2022-12-18T06:39:36;-7.60;99.90
11284;DHT22;5698;47.332;11.180;2022-12-18T06:42:03;-7.60;99.90
11284;DHT22;5698;47.332;11.180;2022-12-18T06:44:30;-7.70;99.90
11284;DHT22;5698;47.332;11.180;2022-12-18T06:46:57;-7.70;99.90
11284;DHT22;5698;47.332;11.180;2022-12-18T06:49:25;-7.60;99.90
11284;DHT22;5698;47.332;11.180;2022-12-18T06:51:52;-7.60;99.90
11284;DHT22;5698;47.332;11.180;2022-12-18T06:54:20;-7.70;99.90
11284;DHT22;5698;47.332;11.180;2022-12-18T06:56:47;-7.70;99.90
11284;DHT22;5698;47.332;11.180;2022-12-18T06:59:14;-7.70;99.90
11284;DHT22;5698;47.332;11.180;2022-12-18T07:01:44;-7.80;99.90
11284;DHT22;5698;47.332;11.180;2022-12-18T07:04:11;-7.80;99.90
11284;DHT22;5698;47.332;11.180;2022-12-18T07:06:38;-7.70;99.90
11284;DHT22;5698;47.332;11.180;2022-12-18T07:09:05;-7.70;99.90
11284;DHT22;5698;47.332;11.180;2022-12-18T07:11:34;-7.60;99.90
11284;DHT22;5698;47.332;11.180;2022-12-18T07:14:01;-7.60;99.90
11284;DHT22;5698;47.332;11.180;2022-12-18T07:16:29;-7.60;99.90
11284;DHT22;5698;47.332;11.180;2022-12-18T07:18:56;-7.60;99.90
11284;DHT22;5698;47.332;11.180;2022-12-18T07:21:25;-7.70;99.90
11284;DHT22;5698;47.332;11.180;2022-12-18T07:24:10;-7.60;99.90
11284;DHT22;5698;47.332;11.180;2022-12-18T07:27:01;-7.70;99.90
11284;DHT22;5698;47.332;11.180;2022-12-18T07:29:28;-7.50;99.90
11284;DHT22;5698;47.332;11.180;2022-12-18T07:31:55;-7.60;99.90
11284;DHT22;5698;47.332;11.180;2022-12-18T07:34:22;-7.50;99.90
11284;DHT22;5698;47.332;11.180;2022-12-18T07:36:49;-7.60;99.90
11284;DHT22;5698;47.332;11.180;2022-12-18T07:39:16;-7.50;99.90
11284;DHT22;5698;47.332;11.180;2022-12-18T07:41:43;-7.50;99.90
11284;DHT22;5698;47.332;11.180;2022-12-18T07:44:32;-7.50;99.90
11284;DHT22;5698;47.332;11.180;2022-12-18T07:46:59;-7.40;99.90
11284;DHT22;5698;47.332;11.180;2022-12-18T07:49:28;-7.40;99.90
11284;DHT22;5698;47.332;11.180;2022-12-18T07:51:55;-7.40;99.90
11284;DHT22;5698;47.332;11.180;2022-12-18T07:54:23;-7.40;99.90
11284;DHT22;5698;47.332;11.180;2022-12-18T07:56:50;-7.20;99.90
11284;DHT22;5698;47.332;11.180;2022-12-18T07:59:17;-7.20;99.90
11284;DHT22;5698;47.332;11.180;2022-12-18T08:01:45;-7.10;99.90
11284;DHT22;5698;47.332;11.180;2022-12-18T08:04:16;-7.00;99.90
11284;DHT22;5698;47.332;11.180;2022-12-18T08:06:45;-6.90;99.90
11284;DHT22;5698;47.332;11.180;2022-12-18T08:09:12;-6.70;99.90
11284;DHT22;5698;47.332;11.180;2022-12-18T08:11:39;-6.60;99.90
11284;DHT22;5698;47.332;11.180;2022-12-18T08:14:07;-6.40;99.90
11284;DHT22;5698;47.332;11.180;2022-12-18T08:16:34;-6.40;99.90
11284;DHT22;5698;47.332;11.180;2022-12-18T08:19:02;-6.40;99.90
11284;DHT22;5698;47.332;11.180;2022-12-18T08:21:31;-6.30;99.90
11284;DHT22;5698;47.332;11.180;2022-12-18T08:24:00;-6.10;99.90
11284;DHT22;5698;47.332;11.180;2022-12-18T08:26:29;-5.90;99.90
11284;DHT22;5698;47.332;11.180;2022-12-18T08:28:57;-5.70;99.90
11284;DHT22;5698;47.332;11.180;2022-12-18T08:31:26;-5.50;99.90
11284;DHT22;5698;47.332;11.180;2022-12-18T08:33:54;-5.30;99.90
11284;DHT22;5698;47.332;11.180;2022-12-18T08:36:23;-5.00;99.90
11284;DHT22;5698;47.332;11.180;2022-12-18T08:38:51;-4.80;99.90
11284;DHT22;5698;47.332;11.180;2022-12-18T08:41:18;-4.60;99.90
11284;DHT22;5698;47.332;11.180;2022-12-18T08:43:45;-4.40;99.90
11284;DHT22;5698;47.332;11.180;2022-12-18T08:46:34;-4.20;99.90
11284;DHT22;5698;47.332;11.180;2022-12-18T08:49:02;-3.90;99.90
11284;DHT22;5698;47.332;11.180;2022-12-18T08:51:30;-3.60;99.90
11284;DHT22;5698;47.332;11.180;2022-12-18T08:53:57;-3.30;99.90
11284;DHT22;5698;47.332;11.180;2022-12-18T08:56:24;-3.00;99.90
11284;DHT22;5698;47.332;11.180;2022-12-18T08:58:52;-2.80;99.90
11284;DHT22;5698;47.332;11.180;2022-12-18T09:01:20;-2.60;99.90
11284;DHT22;5698;47.332;11.180;2022-12-18T09:03:47;-2.40;99.90
11284;DHT22;5698;47.332;11.180;2022-12-18T09:06:16;-2.30;99.90
11284;DHT22;5698;47.332;11.180;2022-12-18T09:08:45;-2.00;99.90
11284;DHT22;5698;47.332;11.180;2022-12-18T09:11:14;-1.80;99.90
11284;DHT22;5698;47.332;11.180;2022-12-18T09:13:42;-1.70;99.90
11284;DHT22;5698;47.332;11.180;2022-12-18T09:16:09;-1.40;99.90
11284;DHT22;5698;47.332;11.180;2022-12-18T09:18:36;-1.20;99.90
11284;DHT22;5698;47.332;11.180;2022-12-18T09:21:08;-1.00;99.90
11284;DHT22;5698;47.332;11.180;2022-12-18T09:23:35;-0.80;99.90
11284;DHT22;5698;47.332;11.180;2022-12-18T09:26:04;-0.70;99.90
11284;DHT22;5698;47.332;11.180;2022-12-18T09:28:31;-0.60;99.90
11284;DHT22;5698;47.332;11.180;2022-12-18T09:30:58;-0.40;99.90
11284;DHT22;5698;47.332;11.180;2022-12-18T09:33:25;-0.20;99.90
11284;DHT22;5698;47.332;11.180;2022-12-18T09:35:52;0.00;99.90
11284;DHT22;5698;47.332;11.180;2022-12-18T09:38:20;0.20;99.90
11284;DHT22;5698;47.332;11.180;2022-12-18T09:40:50;0.50;99.90
11284;DHT22;5698;47.332;11.180;2022-12-18T09:43:24;0.70;99.90
11284;DHT22;5698;47.332;11.180;2022-12-18T09:45:56;1.00;99.90
11284;DHT22;5698;47.332;11.180;2022-12-18T09:48:28;1.20;99.90
11284;DHT22;5698;47.332;11.180;2022-12-18T09:51:01;1.40;99.90
11284;DHT22;5698;47.332;11.180;2022-12-18T09:53:32;1.60;99.90
11284;DHT22;5698;47.332;11.180;2022-12-18T09:56:04;1.70;99.90
11284;DHT22;5698;47.332;11.180;2022-12-18T09:58:36;1.90;99.90
11284;DHT22;5698;47.332;11.180;2022-12-18T10:01:10;1.90;99.90
11284;DHT22;5698;47.332;11.180;2022-12-18T10:03:37;2.10;99.90
11284;DHT22;5698;47.332;11.180;2022-12-18T10:06:10;2.30;99.90
11284;DHT22;5698;47.332;11.180;2022-12-18T10:08:42;2.40;99.90
11284;DHT22;5698;47.332;11.180;2022-12-18T10:11:24;2.50;99.90
11284;DHT22;5698;47.332;11.180;2022-12-18T10:13:57;2.50;99.90
11284;DHT22;5698;47.332;11.180;2022-12-18T10:16:32;2.70;99.90
11284;DHT22;5698;47.332;11.180;2022-12-18T10:19:20;2.80;99.90
11284;DHT22;5698;47.332;11.180;2022-12-18T10:21:57;2.90;99.90
11284;DHT22;5698;47.332;11.180;2022-12-18T10:24:33;3.00;99.90
11284;DHT22;5698;47.332;11.180;2022-12-18T10:27:12;3.00;99.90
11284;DHT22;5698;47.332;11.180;2022-12-18T10:29:42;2.90;99.90
11284;DHT22;5698;47.332;11.180;2022-12-18T10:32:14;3.10;99.90
11284;DHT22;5698;47.332;11.180;2022-12-18T10:34:45;3.10;99.90
11284;DHT22;5698;47.332;11.180;2022-12-18T10:37:16;3.10;99.90
11284;DHT22;5698;47.332;11.180;2022-12-18T10:39:44;3.20;99.90
11284;DHT22;5698;47.332;11.180;2022-12-18T10:42:17;3.20;99.90
11284;DHT22;5698;47.332;11.180;2022-12-18T10:44:46;3.20;99.90
11284;DHT22;5698;47.332;11.180;2022-12-18T10:47:27;3.40;99.90
11284;DHT22;5698;47.332;11.180;2022-12-18T10:49:54;3.30;99.90
11284;DHT22;5698;47.332;11.180;2022-12-18T10:52:23;3.40;99.90
11284;DHT22;5698;47.332;11.180;2022-12-18T10:54:52;3.60;99.90
11284;DHT22;5698;47.332;11.180;2022-12-18T10:57:34;3.60;99.90
11284;DHT22;5698;47.332;11.180;2022-12-18T11:00:21;3.80;99.90
11284;DHT22;5698;47.332;11.180;2022-12-18T11:02:49;3.90;99.90
11284;DHT22;5698;47.332;11.180;2022-12-18T11:05:25;4.00;99.90
11284;DHT22;5698;47.332;11.180;2022-12-18T11:07:53;3.80;99.90
11284;DHT22;5698;47.332;11.180;2022-12-18T11:10:22;3.90;99.90
11284;DHT22;5698;47.332;11.180;2022-12-18T11:12:49;4.00;99.90
11284;DHT22;5698;47.332;11.180;2022-12-18T11:15:20;4.20;99.90
11284;DHT22;5698;47.332;11.180;2022-12-18T11:17:49;4.50;99.90
11284;DHT22;5698;47.332;11.180;2022-12-18T11:20:30;4.70;99.90
11284;DHT22;5698;47.332;11.180;2022-12-18T11:22:59;4.80;99.90
11284;DHT22;5698;47.332;11.180;2022-12-18T11:25:27;5.00;99.90
11284;DHT22;5698;47.332;11.180;2022-12-18T11:27:58;5.20;99.90
11284;DHT22;5698;47.332;11.180;2022-12-18T11:30:29;5.20;99.90
11284;DHT22;5698;47.332;11.180;2022-12-18T11:33:02;5.10;99.90
11284;DHT22;5698;47.332;11.180;2022-12-18T11:35:45;5.10;99.90
11284;DHT22;5698;47.332;11.180;2022-12-18T11:38:20;5.10;99.90
11284;DHT22;5698;47.332;11.180;2022-12-18T11:40:53;4.90;99.90
11284;DHT22;5698;47.332;11.180;2022-12-18T11:43:26;5.00;99.90
11284;DHT22;5698;47.332;11.180;2022-12-18T11:45:59;4.90;99.90
11284;DHT22;5698;47.332;11.180;2022-12-18T11:48:29;4.90;99.90
11284;DHT22;5698;47.332;11.180;2022-12-18T11:50:58;4.80;99.90
11284;DHT22;5698;47.332;11.180;2022-12-18T11:53:26;4.90;99.90
11284;DHT22;5698;47.332;11.180;2022-12-18T11:56:04;4.80;99.90
11284;DHT22;5698;47.332;11.180;2022-12-18T11:58:49;4.80;99.90
11284;DHT22;5698;47.332;11.180;2022-12-18T12:01:35;4.70;99.90
11284;DHT22;5698;47.332;11.180;2022-12-18T12:04:15;4.50;99.90
11284;DHT22;5698;47.332;11.180;2022-12-18T12:06:52;4.30;99.90
11284;DHT22;5698;47.332;11.180;2022-12-18T12:09:26;4.00;99.90
11284;DHT22;5698;47.332;11.180;2022-12-18T12:12:09;3.80;99.90
11284;DHT22;5698;47.332;11.180;2022-12-18T12:14:46;3.50;99.90
11284;DHT22;5698;47.332;11.180;2022-12-18T12:17:22;3.20;99.90
11284;DHT22;5698;47.332;11.180;2022-12-18T12:19:56;3.00;99.90
11284;DHT22;5698;47.332;11.180;2022-12-18T12:22:32;2.80;99.90
11284;DHT22;5698;47.332;11.180;2022-12-18T12:25:23;2.50;99.90
11284;DHT22;5698;47.332;11.180;2022-12-18T12:28:01;2.40;99.90
11284;DHT22;5698;47.332;11.180;2022-12-18T12:30:35;2.20;99.90
11284;DHT22;5698;47.332;11.180;2022-12-18T12:33:17;2.00;99.90
11284;DHT22;5698;47.332;11.180;2022-12-18T12:35:55;1.70;99.90
11284;DHT22;5698;47.332;11.180;2022-12-18T12:38:28;1.50;99.90
11284;DHT22;5698;47.332;11.180;2022-12-18T12:40:59;1.20;99.90
11284;DHT22;5698;47.332;11.180;2022-12-18T12:43:33;1.00;99.90
11284;DHT22;5698;47.332;11.180;2022-12-18T12:46:07;0.80;99.90
11284;DHT22;5698;47.332;11.180;2022-12-18T12:48:40;0.60;99.90
11284;DHT22;5698;47.332;11.180;2022-12-18T12:51:12;0.40;99.90
11284;DHT22;5698;47.332;11.180;2022-12-18T12:53:41;0.30;99.90
11284;DHT22;5698;47.332;11.180;2022-12-18T12:56:11;0.20;99.90
11284;DHT22;5698;47.332;11.180;2022-12-18T12:58:46;0.10;99.90
11284;DHT22;5698;47.332;11.180;2022-12-18T13:01:24;0.00;99.90
11284;DHT22;5698;47.332;11.180;2022-12-18T13:04:02;-0.10;99.90
11284;DHT22;5698;47.332;11.180;2022-12-18T13:06:39;-0.20;99.90
11284;DHT22;5698;47.332;11.180;2022-12-18T13:09:09;-0.20;99.90
11284;DHT22;5698;47.332;11.180;2022-12-18T13:11:38;-0.30;99.90
11284;DHT22;5698;47.332;11.180;2022-12-18T13:14:26;-0.40;99.90
11284;DHT22;5698;47.332;11.180;2022-12-18T13:17:26;-0.40;99.90
11284;DHT22;5698;47.332;11.180;2022-12-18T13:20:09;-0.50;99.90
11284;DHT22;5698;47.332;11.180;2022-12-18T13:22:38;-0.50;99.90
11284;DHT22;5698;47.332;11.180;2022-12-18T13:25:34;-0.60;99.90
11284;DHT22;5698;47.332;11.180;2022-12-18T13:28:07;-0.60;99.90
11284;DHT22;5698;47.332;11.180;2022-12-18T13:30:45;-0.70;99.90
11284;DHT22;5698;47.332;11.180;2022-12-18T13:33:43;-0.70;99.90
11284;DHT22;5698;47.332;11.180;2022-12-18T13:36:17;-0.70;99.90
11284;DHT22;5698;47.332;11.180;2022-12-18T13:39:15;-0.80;99.90
11284;DHT22;5698;47.332;11.180;2022-12-18T13:41:48;-0.80;99.90
11284;DHT22;5698;47.332;11.180;2022-12-18T13:44:25;-0.90;99.90
11284;DHT22;5698;47.332;11.180;2022-12-18T13:46:53;-0.90;99.90
11284;DHT22;5698;47.332;11.180;2022-12-18T13:49:23;-0.90;99.90
11284;DHT22;5698;47.332;11.180;2022-12-18T13:51:54;-0.90;99.90
11284;DHT22;5698;47.332;11.180;2022-12-18T13:54:27;-0.90;99.90
11284;DHT22;5698;47.332;11.180;2022-12-18T13:56:55;-1.00;99.90
11284;DHT22;5698;47.332;11.180;2022-12-18T13:59:23;-1.00;99.90
11284;DHT22;5698;47.332;11.180;2022-12-18T14:01:53;-1.00;99.90
11284;DHT22;5698;47.332;11.180;2022-12-18T14:04:26;-1.00;99.90
11284;DHT22;5698;47.332;11.180;2022-12-18T14:06:57;-1.00;99.90
11284;DHT22;5698;47.332;11.180;2022-12-18T14:09:26;-1.00;99.90
11284;DHT22;5698;47.332;11.180;2022-12-18T14:11:55;-1.10;99.90
11284;DHT22;5698;47.332;11.180;2022-12-18T14:14:45;-1.10;99.90
11284;DHT22;5698;47.332;11.180;2022-12-18T14:17:14;-1.10;99.90
11284;DHT22;5698;47.332;11.180;2022-12-18T14:19:43;-1.10;99.90
11284;DHT22;5698;47.332;11.180;2022-12-18T14:22:17;-1.20;99.90
11284;DHT22;5698;47.332;11.180;2022-12-18T14:24:45;-1.20;99.90
11284;DHT22;5698;47.332;11.180;2022-12-18T14:27:24;-1.10;99.90
11284;DHT22;5698;47.332;11.180;2022-12-18T14:29:51;-1.30;99.90
11284;DHT22;5698;47.332;11.180;2022-12-18T14:32:19;-1.30;99.90
11284;DHT22;5698;47.332;11.180;2022-12-18T14:34:49;-1.30;99.90
11284;DHT22;5698;47.332;11.180;2022-12-18T14:37:22;-1.40;99.90
11284;DHT22;5698;47.332;11.180;2022-12-18T14:39:54;-1.30;99.90
11284;DHT22;5698;47.332;11.180;2022-12-18T14:42:22;-1.40;99.90
11284;DHT22;5698;47.332;11.180;2022-12-18T14:47:52;-1.50;99.90
11284;DHT22;5698;47.332;11.180;2022-12-18T14:50:20;-1.50;99.90
11284;DHT22;5698;47.332;11.180;2022-12-18T14:52:48;-1.50;99.90
11284;DHT22;5698;47.332;11.180;2022-12-18T14:55:16;-1.50;99.90
11284;DHT22;5698;47.332;11.180;2022-12-18T14:57:43;-1.60;99.90
11284;DHT22;5698;47.332;11.180;2022-12-18T15:00:16;-1.60;99.90
11284;DHT22;5698;47.332;11.180;2022-12-18T15:02:46;-1.80;99.90
11284;DHT22;5698;47.332;11.180;2022-12-18T15:05:19;-1.80;99.90
11284;DHT22;5698;47.332;11.180;2022-12-18T15:07:50;-1.80;99.90
11284;DHT22;5698;47.332;11.180;2022-12-18T15:10:19;-1.90;99.90
11284;DHT22;5698;47.332;11.180;2022-12-18T15:12:47;-1.90;99.90
11284;DHT22;5698;47.332;11.180;2022-12-18T15:15:43;-1.90;99.90
11284;DHT22;5698;47.332;11.180;2022-12-18T15:18:13;-2.00;99.90
11284;DHT22;5698;47.332;11.180;2022-12-18T15:20:44;-2.20;99.90
11284;DHT22;5698;47.332;11.180;2022-12-18T15:23:18;-2.20;99.90
11284;DHT22;5698;47.332;11.180;2022-12-18T15:25:47;-2.20;99.90
11284;DHT22;5698;47.332;11.180;2022-12-18T15:28:23;-2.20;99.90
11284;DHT22;5698;47.332;11.180;2022-12-18T15:31:02;-2.30;99.90
11284;DHT22;5698;47.332;11.180;2022-12-18T15:33:34;-2.30;99.90
11284;DHT22;5698;47.332;11.180;2022-12-18T15:36:04;-2.30;99.90
11284;DHT22;5698;47.332;11.180;2022-12-18T15:38:33;-2.40;99.90
11284;DHT22;5698;47.332;11.180;2022-12-18T15:41:00;-2.40;99.90
11284;DHT22;5698;47.332;11.180;2022-12-18T15:43:28;-2.40;99.90
11284;DHT22;5698;47.332;11.180;2022-12-18T15:46:03;-2.40;99.90
11284;DHT22;5698;47.332;11.180;2022-12-18T15:48:33;-2.50;99.90
11284;DHT22;5698;47.332;11.180;2022-12-18T15:51:01;-2.50;99.90
11284;DHT22;5698;47.332;11.180;2022-12-18T15:53:33;-2.50;99.90
11284;DHT22;5698;47.332;11.180;2022-12-18T15:56:00;-2.60;99.90
11284;DHT22;5698;47.332;11.180;2022-12-18T15:58:44;-2.60;99.90
11284;DHT22;5698;47.332;11.180;2022-12-18T16:01:11;-2.70;99.90
11284;DHT22;5698;47.332;11.180;2022-12-18T16:03:39;-2.80;99.90
11284;DHT22;5698;47.332;11.180;2022-12-18T16:06:06;-2.80;99.90